De Bilt, Netherlands
Current Conditions -  °F | °C
As of 4:55 AM on Saturday 25 Oct 2014 (Local Time) from EHAM Reporting Station
Haze Haze  
Wind Chill: 55°   Ceiling: 700
Heat Index: 55°   Visibility: 2.5mi
Dew Point: 55°   Wind: 12mph
Humidity: 100%   Direction: 210°SSW
Pressure: 29.94"   Gusts: NA
Location:  52.14°N, 5.16°E
Report Text: EHAM 250255Z 21010KT 4000 BR SCT003 BKN007 13/13 Q1014 BECMG29008KT 8000 SCT006 BKN012
Loading
Personal Weather Stations






























Interactive Weather Map
Tropical Storm Tracking
New forecast layout! Learn more

10-Day Weather Forecast

Advertisements
Track Severe Weather on mobile